sensor_id;sensor_type;location;lat;lon;timestamp;temperature;humidity
3356;DHT22;1691;52.486;13.374;2024-03-02T00:00:21;9.90;98.40
3356;DHT22;1691;52.486;13.374;2024-03-02T00:02:49;9.90;98.40
3356;DHT22;1691;52.486;13.374;2024-03-02T00:05:21;9.90;98.40
3356;DHT22;1691;52.486;13.374;2024-03-02T00:07:57;9.90;98.40
3356;DHT22;1691;52.486;13.374;2024-03-02T00:10:39;9.90;98.40
3356;DHT22;1691;52.486;13.374;2024-03-02T00:13:08;9.90;98.40
3356;DHT22;1691;52.486;13.374;2024-03-02T00:15:54;9.90;98.40
3356;DHT22;1691;52.486;13.374;2024-03-02T00:18:27;9.90;98.40
3356;DHT22;1691;52.486;13.374;2024-03-02T00:20:57;9.90;98.50
3356;DHT22;1691;52.486;13.374;2024-03-02T00:23:30;9.90;98.50
3356;DHT22;1691;52.486;13.374;2024-03-02T00:25:58;9.90;98.50
3356;DHT22;1691;52.486;13.374;2024-03-02T00:28:36;10.00;98.50
3356;DHT22;1691;52.486;13.374;2024-03-02T00:31:09;10.00;98.50
3356;DHT22;1691;52.486;13.374;2024-03-02T00:33:40;10.00;98.50
3356;DHT22;1691;52.486;13.374;2024-03-02T00:36:13;10.00;98.40
3356;DHT22;1691;52.486;13.374;2024-03-02T00:38:45;10.10;98.50
3356;DHT22;1691;52.486;13.374;2024-03-02T00:41:27;10.10;98.40
3356;DHT22;1691;52.486;13.374;2024-03-02T00:46:31;10.10;98.30
3356;DHT22;1691;52.486;13.374;2024-03-02T00:49:04;10.20;98.30
3356;DHT22;1691;52.486;13.374;2024-03-02T00:51:34;10.20;98.30
3356;DHT22;1691;52.486;13.374;2024-03-02T00:54:05;10.20;98.20
3356;DHT22;1691;52.486;13.374;2024-03-02T00:56:34;10.20;98.20
3356;DHT22;1691;52.486;13.374;2024-03-02T00:59:02;10.10;98.30
3356;DHT22;1691;52.486;13.374;2024-03-02T01:01:29;10.10;98.30
3356;DHT22;1691;52.486;13.374;2024-03-02T01:03:56;10.10;98.30
3356;DHT22;1691;52.486;13.374;2024-03-02T01:06:23;10.10;98.40
3356;DHT22;1691;52.486;13.374;2024-03-02T01:08:50;10.10;98.40
3356;DHT22;1691;52.486;13.374;2024-03-02T01:11:19;10.10;98.40
3356;DHT22;1691;52.486;13.374;2024-03-02T01:13:50;10.10;98.50
3356;DHT22;1691;52.486;13.374;2024-03-02T01:16:17;10.10;98.50
3356;DHT22;1691;52.486;13.374;2024-03-02T01:18:44;10.10;98.60
3356;DHT22;1691;52.486;13.374;2024-03-02T01:21:12;10.10;98.60
3356;DHT22;1691;52.486;13.374;2024-03-02T01:23:39;10.10;98.60
3356;DHT22;1691;52.486;13.374;2024-03-02T01:26:06;10.10;98.60
3356;DHT22;1691;52.486;13.374;2024-03-02T01:28:33;10.10;98.70
3356;DHT22;1691;52.486;13.374;2024-03-02T01:31:00;10.20;98.70
3356;DHT22;1691;52.486;13.374;2024-03-02T01:33:28;10.20;98.70
3356;DHT22;1691;52.486;13.374;2024-03-02T01:35:56;10.20;98.70
3356;DHT22;1691;52.486;13.374;2024-03-02T01:38:22;10.20;98.70
3356;DHT22;1691;52.486;13.374;2024-03-02T01:40:49;10.10;98.70
3356;DHT22;1691;52.486;13.374;2024-03-02T01:43:16;10.10;98.70
3356;DHT22;1691;52.486;13.374;2024-03-02T01:45:44;10.10;98.70
3356;DHT22;1691;52.486;13.374;2024-03-02T01:48:11;10.10;98.70
3356;DHT22;1691;52.486;13.374;2024-03-02T01:50:38;10.00;98.70
3356;DHT22;1691;52.486;13.374;2024-03-02T01:53:05;10.00;98.70
3356;DHT22;1691;52.486;13.374;2024-03-02T01:55:32;10.00;98.70
3356;DHT22;1691;52.486;13.374;2024-03-02T01:58:01;10.00;98.70
3356;DHT22;1691;52.486;13.374;2024-03-02T02:00:28;10.00;98.70
3356;DHT22;1691;52.486;13.374;2024-03-02T02:02:56;10.00;98.70
3356;DHT22;1691;52.486;13.374;2024-03-02T02:05:24;9.90;98.70
3356;DHT22;1691;52.486;13.374;2024-03-02T02:07:51;9.90;98.70
3356;DHT22;1691;52.486;13.374;2024-03-02T02:10:18;9.90;98.70
3356;DHT22;1691;52.486;13.374;2024-03-02T02:12:46;9.80;98.70
3356;DHT22;1691;52.486;13.374;2024-03-02T02:17:51;9.80;98.70
3356;DHT22;1691;52.486;13.374;2024-03-02T02:20:18;9.80;98.70
3356;DHT22;1691;52.486;13.374;2024-03-02T02:23:12;9.80;98.70
3356;DHT22;1691;52.486;13.374;2024-03-02T02:25:40;9.70;98.70
3356;DHT22;1691;52.486;13.374;2024-03-02T02:28:07;9.70;98.70
3356;DHT22;1691;52.486;13.374;2024-03-02T02:30:34;9.70;98.70
3356;DHT22;1691;52.486;13.374;2024-03-02T02:33:01;9.70;98.70
3356;DHT22;1691;52.486;13.374;2024-03-02T02:35:28;9.70;98.70
3356;DHT22;1691;52.486;13.374;2024-03-02T02:37:57;9.70;98.70
3356;DHT22;1691;52.486;13.374;2024-03-02T02:40:25;9.70;98.70
3356;DHT22;1691;52.486;13.374;2024-03-02T02:42:52;9.70;98.70
3356;DHT22;1691;52.486;13.374;2024-03-02T02:45:19;9.70;98.70
3356;DHT22;1691;52.486;13.374;2024-03-02T02:47:46;9.70;98.70
3356;DHT22;1691;52.486;13.374;2024-03-02T02:50:14;9.70;98.70
3356;DHT22;1691;52.486;13.374;2024-03-02T02:52:42;9.70;98.70
3356;DHT22;1691;52.486;13.374;2024-03-02T02:55:12;9.70;98.70
3356;DHT22;1691;52.486;13.374;2024-03-02T02:57:41;9.70;98.70
3356;DHT22;1691;52.486;13.374;2024-03-02T03:00:13;9.70;98.70
3356;DHT22;1691;52.486;13.374;2024-03-02T03:02:45;9.60;98.70
3356;DHT22;1691;52.486;13.374;2024-03-02T03:05:15;9.60;98.70
3356;DHT22;1691;52.486;13.374;2024-03-02T03:07:42;9.60;98.70
3356;DHT22;1691;52.486;13.374;2024-03-02T03:10:11;9.60;98.70
3356;DHT22;1691;52.486;13.374;2024-03-02T03:12:38;9.60;98.70
3356;DHT22;1691;52.486;13.374;2024-03-02T03:15:08;9.60;98.70
3356;DHT22;1691;52.486;13.374;2024-03-02T03:17:36;9.60;98.70
3356;DHT22;1691;52.486;13.374;2024-03-02T03:20:05;9.60;98.70
3356;DHT22;1691;52.486;13.374;2024-03-02T03:22:33;9.70;98.70
3356;DHT22;1691;52.486;13.374;2024-03-02T03:25:02;9.70;98.70
3356;DHT22;1691;52.486;13.374;2024-03-02T03:27:30;9.70;98.70
3356;DHT22;1691;52.486;13.374;2024-03-02T03:29:57;9.70;98.70
3356;DHT22;1691;52.486;13.374;2024-03-02T03:32:24;9.70;98.70
3356;DHT22;1691;52.486;13.374;2024-03-02T03:34:51;9.70;98.70
3356;DHT22;1691;52.486;13.374;2024-03-02T03:37:18;9.70;98.70
3356;DHT22;1691;52.486;13.374;2024-03-02T03:39:45;9.70;98.70
3356;DHT22;1691;52.486;13.374;2024-03-02T03:42:12;9.70;98.70
3356;DHT22;1691;52.486;13.374;2024-03-02T03:44:39;9.80;98.70
3356;DHT22;1691;52.486;13.374;2024-03-02T03:47:08;9.80;98.70
3356;DHT22;1691;52.486;13.374;2024-03-02T03:49:35;9.80;98.70
3356;DHT22;1691;52.486;13.374;2024-03-02T03:52:02;9.80;98.70
3356;DHT22;1691;52.486;13.374;2024-03-02T03:54:30;9.80;98.70
3356;DHT22;1691;52.486;13.374;2024-03-02T03:56:57;9.90;98.70
3356;DHT22;1691;52.486;13.374;2024-03-02T03:59:24;9.90;98.70
3356;DHT22;1691;52.486;13.374;2024-03-02T04:01:51;9.90;98.70
3356;DHT22;1691;52.486;13.374;2024-03-02T04:04:19;9.90;98.70
3356;DHT22;1691;52.486;13.374;2024-03-02T04:06:46;9.90;98.70
3356;DHT22;1691;52.486;13.374;2024-03-02T04:09:13;9.90;98.70
3356;DHT22;1691;52.486;13.374;2024-03-02T04:11:40;9.90;98.70
3356;DHT22;1691;52.486;13.374;2024-03-02T04:14:07;9.90;98.70
3356;DHT22;1691;52.486;13.374;2024-03-02T04:16:34;9.90;98.70
3356;DHT22;1691;52.486;13.374;2024-03-02T04:19:01;9.90;98.70
3356;DHT22;1691;52.486;13.374;2024-03-02T04:21:28;9.90;98.70
3356;DHT22;1691;52.486;13.374;2024-03-02T04:23:55;9.90;98.70
3356;DHT22;1691;52.486;13.374;2024-03-02T04:26:25;9.90;98.70
3356;DHT22;1691;52.486;13.374;2024-03-02T04:28:53;9.90;98.70
3356;DHT22;1691;52.486;13.374;2024-03-02T04:31:21;9.90;98.70
3356;DHT22;1691;52.486;13.374;2024-03-02T04:33:48;9.90;98.70
3356;DHT22;1691;52.486;13.374;2024-03-02T04:36:15;9.90;98.70
3356;DHT22;1691;52.486;13.374;2024-03-02T04:38:42;9.90;98.70
3356;DHT22;1691;52.486;13.374;2024-03-02T04:41:09;9.90;98.70
3356;DHT22;1691;52.486;13.374;2024-03-02T04:43:36;9.90;98.70
3356;DHT22;1691;52.486;13.374;2024-03-02T04:46:05;9.90;98.70
3356;DHT22;1691;52.486;13.374;2024-03-02T04:48:33;9.90;98.70
3356;DHT22;1691;52.486;13.374;2024-03-02T04:51:01;9.90;98.70
3356;DHT22;1691;52.486;13.374;2024-03-02T04:53:28;9.90;98.70
3356;DHT22;1691;52.486;13.374;2024-03-02T04:55:55;9.90;98.70
3356;DHT22;1691;52.486;13.374;2024-03-02T04:58:44;9.90;98.70
3356;DHT22;1691;52.486;13.374;2024-03-02T05:01:11;9.90;98.70
3356;DHT22;1691;52.486;13.374;2024-03-02T05:03:39;9.90;98.70
3356;DHT22;1691;52.486;13.374;2024-03-02T05:06:06;9.90;98.70
3356;DHT22;1691;52.486;13.374;2024-03-02T05:08:33;9.90;98.70
3356;DHT22;1691;52.486;13.374;2024-03-02T05:11:00;9.80;98.70
3356;DHT22;1691;52.486;13.374;2024-03-02T05:13:47;9.80;98.70
3356;DHT22;1691;52.486;13.374;2024-03-02T05:16:14;9.80;98.70
3356;DHT22;1691;52.486;13.374;2024-03-02T05:18:41;9.80;98.70
3356;DHT22;1691;52.486;13.374;2024-03-02T05:21:08;9.70;98.70
3356;DHT22;1691;52.486;13.374;2024-03-02T05:23:35;9.70;98.70
3356;DHT22;1691;52.486;13.374;2024-03-02T05:26:02;9.70;98.70
3356;DHT22;1691;52.486;13.374;2024-03-02T05:28:29;9.70;98.70
3356;DHT22;1691;52.486;13.374;2024-03-02T05:30:56;9.70;98.70
3356;DHT22;1691;52.486;13.374;2024-03-02T05:33:23;9.70;98.70
3356;DHT22;1691;52.486;13.374;2024-03-02T05:35:50;9.70;98.70
3356;DHT22;1691;52.486;13.374;2024-03-02T05:38:18;9.70;98.70
3356;DHT22;1691;52.486;13.374;2024-03-02T05:40:45;9.70;98.70
3356;DHT22;1691;52.486;13.374;2024-03-02T05:43:12;9.70;98.70
3356;DHT22;1691;52.486;13.374;2024-03-02T05:45:39;9.70;98.70
3356;DHT22;1691;52.486;13.374;2024-03-02T05:48:07;9.80;98.70
3356;DHT22;1691;52.486;13.374;2024-03-02T05:50:35;9.80;98.70
3356;DHT22;1691;52.486;13.374;2024-03-02T05:53:02;9.80;98.70
3356;DHT22;1691;52.486;13.374;2024-03-02T05:55:29;9.80;98.70
3356;DHT22;1691;52.486;13.374;2024-03-02T05:57:56;9.80;98.70
3356;DHT22;1691;52.486;13.374;2024-03-02T06:00:47;9.70;98.70
3356;DHT22;1691;52.486;13.374;2024-03-02T06:03:15;9.70;98.70
3356;DHT22;1691;52.486;13.374;2024-03-02T06:05:42;9.70;98.70
3356;DHT22;1691;52.486;13.374;2024-03-02T06:08:09;9.70;98.70
3356;DHT22;1691;52.486;13.374;2024-03-02T06:10:36;9.80;98.70
3356;DHT22;1691;52.486;13.374;2024-03-02T06:13:03;9.80;98.70
3356;DHT22;1691;52.486;13.374;2024-03-02T06:15:30;9.80;98.70
3356;DHT22;1691;52.486;13.374;2024-03-02T06:17:57;9.80;98.70
3356;DHT22;1691;52.486;13.374;2024-03-02T06:20:25;9.80;98.70
3356;DHT22;1691;52.486;13.374;2024-03-02T06:22:53;9.80;98.70
3356;DHT22;1691;52.486;13.374;2024-03-02T06:25:20;9.80;98.70
3356;DHT22;1691;52.486;13.374;2024-03-02T06:27:47;9.80;98.70
3356;DHT22;1691;52.486;13.374;2024-03-02T06:30:14;9.90;98.70
3356;DHT22;1691;52.486;13.374;2024-03-02T06:32:41;9.90;98.70
3356;DHT22;1691;52.486;13.374;2024-03-02T06:35:08;9.90;98.70
3356;DHT22;1691;52.486;13.374;2024-03-02T06:37:38;9.90;98.70
3356;DHT22;1691;52.486;13.374;2024-03-02T06:40:07;9.90;98.70
3356;DHT22;1691;52.486;13.374;2024-03-02T06:42:35;9.90;98.70
3356;DHT22;1691;52.486;13.374;2024-03-02T06:45:03;9.90;98.70
3356;DHT22;1691;52.486;13.374;2024-03-02T06:47:30;9.90;98.70
3356;DHT22;1691;52.486;13.374;2024-03-02T06:49:57;10.00;98.70
3356;DHT22;1691;52.486;13.374;2024-03-02T06:52:25;10.00;98.70
3356;DHT22;1691;52.486;13.374;2024-03-02T06:54:52;10.00;98.70
3356;DHT22;1691;52.486;13.374;2024-03-02T06:57:19;10.00;98.70
3356;DHT22;1691;52.486;13.374;2024-03-02T06:59:47;9.90;98.70
3356;DHT22;1691;52.486;13.374;2024-03-02T07:02:17;9.90;98.70
3356;DHT22;1691;52.486;13.374;2024-03-02T07:04:44;9.90;98.70
3356;DHT22;1691;52.486;13.374;2024-03-02T07:07:12;9.90;98.70
3356;DHT22;1691;52.486;13.374;2024-03-02T07:09:39;9.90;98.70
3356;DHT22;1691;52.486;13.374;2024-03-02T07:12:06;9.90;98.70
3356;DHT22;1691;52.486;13.374;2024-03-02T07:14:34;9.80;98.70
3356;DHT22;1691;52.486;13.374;2024-03-02T07:17:20;9.80;98.70
3356;DHT22;1691;52.486;13.374;2024-03-02T07:19:47;9.80;98.70
3356;DHT22;1691;52.486;13.374;2024-03-02T07:22:14;9.90;98.70
3356;DHT22;1691;52.486;13.374;2024-03-02T07:24:42;9.90;98.70
3356;DHT22;1691;52.486;13.374;2024-03-02T07:27:10;10.00;98.70
3356;DHT22;1691;52.486;13.374;2024-03-02T07:29:37;10.00;98.70
3356;DHT22;1691;52.486;13.374;2024-03-02T07:32:06;10.00;98.70
3356;DHT22;1691;52.486;13.374;2024-03-02T07:34:33;9.90;98.70
3356;DHT22;1691;52.486;13.374;2024-03-02T07:37:00;9.90;98.70
3356;DHT22;1691;52.486;13.374;2024-03-02T07:39:28;9.90;98.70
3356;DHT22;1691;52.486;13.374;2024-03-02T07:41:56;9.90;98.70
3356;DHT22;1691;52.486;13.374;2024-03-02T07:44:23;9.90;98.70
3356;DHT22;1691;52.486;13.374;2024-03-02T07:46:50;10.00;98.70
3356;DHT22;1691;52.486;13.374;2024-03-02T07:49:20;10.00;98.70
3356;DHT22;1691;52.486;13.374;2024-03-02T07:51:47;10.00;98.70
3356;DHT22;1691;52.486;13.374;2024-03-02T07:54:14;10.00;98.70
3356;DHT22;1691;52.486;13.374;2024-03-02T07:56:41;10.00;98.70
3356;DHT22;1691;52.486;13.374;2024-03-02T07:59:08;10.10;98.70
3356;DHT22;1691;52.486;13.374;2024-03-02T08:01:35;10.10;98.70
3356;DHT22;1691;52.486;13.374;2024-03-02T08:04:03;10.10;98.70
3356;DHT22;1691;52.486;13.374;2024-03-02T08:06:30;10.20;98.70
3356;DHT22;1691;52.486;13.374;2024-03-02T08:08:59;10.20;98.70
3356;DHT22;1691;52.486;13.374;2024-03-02T08:11:27;10.20;98.70
3356;DHT22;1691;52.486;13.374;2024-03-02T08:13:54;10.20;98.70
3356;DHT22;1691;52.486;13.374;2024-03-02T08:16:22;10.20;98.70
3356;DHT22;1691;52.486;13.374;2024-03-02T08:18:50;10.20;98.70
3356;DHT22;1691;52.486;13.374;2024-03-02T08:21:18;10.10;98.70
3356;DHT22;1691;52.486;13.374;2024-03-02T08:23:45;10.10;98.70
3356;DHT22;1691;52.486;13.374;2024-03-02T08:26:12;10.10;98.70
3356;DHT22;1691;52.486;13.374;2024-03-02T08:28:39;10.10;98.70
3356;DHT22;1691;52.486;13.374;2024-03-02T08:31:09;10.10;98.70
3356;DHT22;1691;52.486;13.374;2024-03-02T08:33:37;10.10;98.70
3356;DHT22;1691;52.486;13.374;2024-03-02T08:36:05;10.10;98.70
3356;DHT22;1691;52.486;13.374;2024-03-02T08:38:32;10.20;98.70
3356;DHT22;1691;52.486;13.374;2024-03-02T08:40:59;10.20;98.70
3356;DHT22;1691;52.486;13.374;2024-03-02T08:43:26;10.20;98.70
3356;DHT22;1691;52.486;13.374;2024-03-02T08:45:53;10.20;98.70
3356;DHT22;1691;52.486;13.374;2024-03-02T08:48:20;10.10;98.70
3356;DHT22;1691;52.486;13.374;2024-03-02T08:50:47;10.10;98.70
3356;DHT22;1691;52.486;13.374;2024-03-02T08:53:14;10.10;98.70
3356;DHT22;1691;52.486;13.374;2024-03-02T08:55:48;10.10;98.70
3356;DHT22;1691;52.486;13.374;2024-03-02T08:58:15;10.10;98.70
3356;DHT22;1691;52.486;13.374;2024-03-02T09:00:42;10.10;98.70
3356;DHT22;1691;52.486;13.374;2024-03-02T09:03:10;10.20;98.70
3356;DHT22;1691;52.486;13.374;2024-03-02T09:05:37;10.20;98.70
3356;DHT22;1691;52.486;13.374;2024-03-02T09:08:04;10.30;98.70
3356;DHT22;1691;52.486;13.374;2024-03-02T09:10:33;10.30;98.70
3356;DHT22;1691;52.486;13.374;2024-03-02T09:13:00;10.30;98.70
3356;DHT22;1691;52.486;13.374;2024-03-02T09:15:27;10.40;98.70
3356;DHT22;1691;52.486;13.374;2024-03-02T09:17:54;10.40;98.70
3356;DHT22;1691;52.486;13.374;2024-03-02T09:20:21;10.40;98.70
3356;DHT22;1691;52.486;13.374;2024-03-02T09:22:49;10.40;98.70
3356;DHT22;1691;52.486;13.374;2024-03-02T09:25:16;10.40;98.70
3356;DHT22;1691;52.486;13.374;2024-03-02T09:27:43;10.50;98.70
3356;DHT22;1691;52.486;13.374;2024-03-02T09:30:11;10.50;98.70
3356;DHT22;1691;52.486;13.374;2024-03-02T09:32:40;10.50;98.70
3356;DHT22;1691;52.486;13.374;2024-03-02T09:35:08;10.50;98.70
3356;DHT22;1691;52.486;13.374;2024-03-02T09:37:35;10.60;98.70
3356;DHT22;1691;52.486;13.374;2024-03-02T09:40:03;10.70;98.70
3356;DHT22;1691;52.486;13.374;2024-03-02T09:42:31;10.80;98.70
3356;DHT22;1691;52.486;13.374;2024-03-02T09:44:59;10.90;98.70
3356;DHT22;1691;52.486;13.374;2024-03-02T09:47:26;11.00;98.70
3356;DHT22;1691;52.486;13.374;2024-03-02T09:49:53;11.10;98.70
3356;DHT22;1691;52.486;13.374;2024-03-02T09:52:25;11.20;98.70
3356;DHT22;1691;52.486;13.374;2024-03-02T09:54:52;11.40;98.70
3356;DHT22;1691;52.486;13.374;2024-03-02T09:57:19;11.60;98.70
3356;DHT22;1691;52.486;13.374;2024-03-02T09:59:47;11.80;98.70
3356;DHT22;1691;52.486;13.374;2024-03-02T10:02:14;12.00;98.70
3356;DHT22;1691;52.486;13.374;2024-03-02T10:04:41;12.30;98.70
3356;DHT22;1691;52.486;13.374;2024-03-02T10:07:15;12.50;98.70
3356;DHT22;1691;52.486;13.374;2024-03-02T10:09:48;12.80;98.70
3356;DHT22;1691;52.486;13.374;2024-03-02T10:12:16;13.00;98.70
3356;DHT22;1691;52.486;13.374;2024-03-02T10:14:44;13.30;98.70
3356;DHT22;1691;52.486;13.374;2024-03-02T10:17:13;13.40;98.70
3356;DHT22;1691;52.486;13.374;2024-03-02T10:19:42;13.60;98.70
3356;DHT22;1691;52.486;13.374;2024-03-02T10:22:10;13.70;98.70
3356;DHT22;1691;52.486;13.374;2024-03-02T10:24:43;13.80;98.40
3356;DHT22;1691;52.486;13.374;2024-03-02T10:27:19;13.80;97.80
3356;DHT22;1691;52.486;13.374;2024-03-02T10:29:49;13.80;97.50
3356;DHT22;1691;52.486;13.374;2024-03-02T10:32:16;13.70;97.10
3356;DHT22;1691;52.486;13.374;2024-03-02T10:34:46;13.70;96.70
3356;DHT22;1691;52.486;13.374;2024-03-02T10:37:15;13.60;96.50
3356;DHT22;1691;52.486;13.374;2024-03-02T10:39:46;13.60;96.30
3356;DHT22;1691;52.486;13.374;2024-03-02T10:42:14;13.60;95.90
3356;DHT22;1691;52.486;13.374;2024-03-02T10:44:42;13.50;95.80
3356;DHT22;1691;52.486;13.374;2024-03-02T10:47:12;13.50;95.60
3356;DHT22;1691;52.486;13.374;2024-03-02T10:49:42;13.50;95.40
3356;DHT22;1691;52.486;13.374;2024-03-02T10:52:12;13.40;95.20
3356;DHT22;1691;52.486;13.374;2024-03-02T10:54:39;13.40;94.90
3356;DHT22;1691;52.486;13.374;2024-03-02T10:57:07;13.40;94.80
3356;DHT22;1691;52.486;13.374;2024-03-02T10:59:37;13.50;94.60
3356;DHT22;1691;52.486;13.374;2024-03-02T11:02:21;13.50;94.30
3356;DHT22;1691;52.486;13.374;2024-03-02T11:04:50;13.50;94.00
3356;DHT22;1691;52.486;13.374;2024-03-02T11:07:23;13.60;93.80
3356;DHT22;1691;52.486;13.374;2024-03-02T11:09:59;13.70;93.70
3356;DHT22;1691;52.486;13.374;2024-03-02T11:12:56;13.80;93.30
3356;DHT22;1691;52.486;13.374;2024-03-02T11:15:29;13.90;92.90
3356;DHT22;1691;52.486;13.374;2024-03-02T11:17:57;14.00;92.80
3356;DHT22;1691;52.486;13.374;2024-03-02T11:20:25;14.10;92.50
3356;DHT22;1691;52.486;13.374;2024-03-02T11:22:52;14.20;92.30
3356;DHT22;1691;52.486;13.374;2024-03-02T11:25:27;14.30;91.90
3356;DHT22;1691;52.486;13.374;2024-03-02T11:33:06;14.70;90.90
3356;DHT22;1691;52.486;13.374;2024-03-02T11:35:41;14.90;90.90
3356;DHT22;1691;52.486;13.374;2024-03-02T11:38:10;15.00;90.30
3356;DHT22;1691;52.486;13.374;2024-03-02T11:40:39;15.10;89.70
3356;DHT22;1691;52.486;13.374;2024-03-02T11:43:07;15.10;88.80
3356;DHT22;1691;52.486;13.374;2024-03-02T11:45:36;15.00;88.60
3356;DHT22;1691;52.486;13.374;2024-03-02T11:48:08;15.00;88.40
3356;DHT22;1691;52.486;13.374;2024-03-02T11:50:47;15.00;88.40
3356;DHT22;1691;52.486;13.374;2024-03-02T11:53:17;14.90;87.90
3356;DHT22;1691;52.486;13.374;2024-03-02T11:55:47;14.80;87.90
3356;DHT22;1691;52.486;13.374;2024-03-02T11:58:16;14.80;88.00
3356;DHT22;1691;52.486;13.374;2024-03-02T12:00:54;14.90;87.50
3356;DHT22;1691;52.486;13.374;2024-03-02T12:03:24;14.90;87.10
3356;DHT22;1691;52.486;13.374;2024-03-02T12:05:53;14.90;87.10
3356;DHT22;1691;52.486;13.374;2024-03-02T12:08:21;15.00;86.90
3356;DHT22;1691;52.486;13.374;2024-03-02T12:11:01;15.00;86.40
3356;DHT22;1691;52.486;13.374;2024-03-02T12:13:30;14.90;85.80
3356;DHT22;1691;52.486;13.374;2024-03-02T12:15:57;14.80;86.00
3356;DHT22;1691;52.486;13.374;2024-03-02T12:18:25;14.70;86.20
3356;DHT22;1691;52.486;13.374;2024-03-02T12:20:53;14.60;86.40
3356;DHT22;1691;52.486;13.374;2024-03-02T12:23:23;14.60;86.40
3356;DHT22;1691;52.486;13.374;2024-03-02T12:25:51;14.50;86.20
3356;DHT22;1691;52.486;13.374;2024-03-02T12:28:18;14.50;86.20
3356;DHT22;1691;52.486;13.374;2024-03-02T12:30:45;14.50;86.20
3356;DHT22;1691;52.486;13.374;2024-03-02T12:33:14;14.60;86.40
3356;DHT22;1691;52.486;13.374;2024-03-02T12:35:41;14.60;86.20
3356;DHT22;1691;52.486;13.374;2024-03-02T12:38:09;14.70;86.00
3356;DHT22;1691;52.486;13.374;2024-03-02T12:40:38;14.80;85.80
3356;DHT22;1691;52.486;13.374;2024-03-02T12:43:05;14.80;85.40
3356;DHT22;1691;52.486;13.374;2024-03-02T12:45:34;14.70;85.40
3356;DHT22;1691;52.486;13.374;2024-03-02T12:48:02;14.70;85.60
3356;DHT22;1691;52.486;13.374;2024-03-02T12:50:31;14.70;85.40
3356;DHT22;1691;52.486;13.374;2024-03-02T12:52:58;14.70;85.20
3356;DHT22;1691;52.486;13.374;2024-03-02T12:55:26;14.70;85.40
3356;DHT22;1691;52.486;13.374;2024-03-02T12:57:53;14.70;85.40
3356;DHT22;1691;52.486;13.374;2024-03-02T13:00:21;14.80;85.20
3356;DHT22;1691;52.486;13.374;2024-03-02T13:02:50;14.80;84.90
3356;DHT22;1691;52.486;13.374;2024-03-02T13:05:19;14.90;84.70
3356;DHT22;1691;52.486;13.374;2024-03-02T13:07:47;15.00;84.50
3356;DHT22;1691;52.486;13.374;2024-03-02T13:10:15;15.10;84.70
3356;DHT22;1691;52.486;13.374;2024-03-02T13:12:42;15.30;84.30
3356;DHT22;1691;52.486;13.374;2024-03-02T13:15:10;15.50;83.80
3356;DHT22;1691;52.486;13.374;2024-03-02T13:17:44;15.70;83.00
3356;DHT22;1691;52.486;13.374;2024-03-02T13:20:13;15.80;82.80
3356;DHT22;1691;52.486;13.374;2024-03-02T13:22:41;15.90;82.30
3356;DHT22;1691;52.486;13.374;2024-03-02T13:25:08;16.00;81.90
3356;DHT22;1691;52.486;13.374;2024-03-02T13:27:37;15.90;81.90
3356;DHT22;1691;52.486;13.374;2024-03-02T13:30:05;15.90;81.70
3356;DHT22;1691;52.486;13.374;2024-03-02T13:32:33;15.90;81.70
3356;DHT22;1691;52.486;13.374;2024-03-02T13:35:00;15.90;81.50
3356;DHT22;1691;52.486;13.374;2024-03-02T13:37:27;15.90;81.30
3356;DHT22;1691;52.486;13.374;2024-03-02T13:39:54;15.90;81.00
3356;DHT22;1691;52.486;13.374;2024-03-02T13:42:21;15.80;80.60
3356;DHT22;1691;52.486;13.374;2024-03-02T13:44:48;15.70;80.20
3356;DHT22;1691;52.486;13.374;2024-03-02T13:47:17;15.60;80.40
3356;DHT22;1691;52.486;13.374;2024-03-02T13:49:44;15.50;80.40
3356;DHT22;1691;52.486;13.374;2024-03-02T13:52:14;15.50;80.40
3356;DHT22;1691;52.486;13.374;2024-03-02T13:54:42;15.40;80.20
3356;DHT22;1691;52.486;13.374;2024-03-02T13:57:11;15.40;80.20
3356;DHT22;1691;52.486;13.374;2024-03-02T13:59:41;15.40;80.20
3356;DHT22;1691;52.486;13.374;2024-03-02T14:02:09;15.40;80.20
3356;DHT22;1691;52.486;13.374;2024-03-02T14:04:37;15.50;80.00
3356;DHT22;1691;52.486;13.374;2024-03-02T14:07:05;15.50;79.70
3356;DHT22;1691;52.486;13.374;2024-03-02T14:09:35;15.50;79.30
3356;DHT22;1691;52.486;13.374;2024-03-02T14:12:04;15.50;79.10
3356;DHT22;1691;52.486;13.374;2024-03-02T14:14:32;15.60;78.90
3356;DHT22;1691;52.486;13.374;2024-03-02T14:17:00;15.60;78.30
3356;DHT22;1691;52.486;13.374;2024-03-02T14:19:30;15.60;78.00
3356;DHT22;1691;52.486;13.374;2024-03-02T14:21:58;15.50;77.80
3356;DHT22;1691;52.486;13.374;2024-03-02T14:24:25;15.50;77.80
3356;DHT22;1691;52.486;13.374;2024-03-02T14:26:53;15.30;77.80
3356;DHT22;1691;52.486;13.374;2024-03-02T14:29:30;15.20;78.20
3356;DHT22;1691;52.486;13.374;2024-03-02T14:31:59;15.20;78.30
3356;DHT22;1691;52.486;13.374;2024-03-02T14:34:26;15.10;78.20
3356;DHT22;1691;52.486;13.374;2024-03-02T14:36:53;15.00;78.20
3356;DHT22;1691;52.486;13.374;2024-03-02T14:39:20;14.90;78.20
3356;DHT22;1691;52.486;13.374;2024-03-02T14:41:47;14.90;78.50
3356;DHT22;1691;52.486;13.374;2024-03-02T14:44:15;14.80;78.70
3356;DHT22;1691;52.486;13.374;2024-03-02T14:46:46;14.70;78.90
3356;DHT22;1691;52.486;13.374;2024-03-02T14:49:13;14.70;78.90
3356;DHT22;1691;52.486;13.374;2024-03-02T14:51:41;14.60;79.30
3356;DHT22;1691;52.486;13.374;2024-03-02T14:54:08;14.60;79.50
3356;DHT22;1691;52.486;13.374;2024-03-02T14:56:35;14.50;79.80
3356;DHT22;1691;52.486;13.374;2024-03-02T14:59:02;14.40;80.20
3356;DHT22;1691;52.486;13.374;2024-03-02T15:01:29;14.40;80.20
3356;DHT22;1691;52.486;13.374;2024-03-02T15:03:56;14.30;80.60
3356;DHT22;1691;52.486;13.374;2024-03-02T15:06:23;14.30;80.80
3356;DHT22;1691;52.486;13.374;2024-03-02T15:08:50;14.20;81.00
3356;DHT22;1691;52.486;13.374;2024-03-02T15:11:17;14.20;81.10
3356;DHT22;1691;52.486;13.374;2024-03-02T15:13:44;14.10;81.70
3356;DHT22;1691;52.486;13.374;2024-03-02T15:16:11;14.10;81.70
3356;DHT22;1691;52.486;13.374;2024-03-02T15:18:39;14.00;81.70
3356;DHT22;1691;52.486;13.374;2024-03-02T15:21:06;13.90;81.90
3356;DHT22;1691;52.486;13.374;2024-03-02T15:23:33;13.90;81.90
3356;DHT22;1691;52.486;13.374;2024-03-02T15:26:00;13.90;82.10
3356;DHT22;1691;52.486;13.374;2024-03-02T15:28:27;13.90;82.30
3356;DHT22;1691;52.486;13.374;2024-03-02T15:30:54;13.90;82.30
3356;DHT22;1691;52.486;13.374;2024-03-02T15:33:22;13.90;82.30
3356;DHT22;1691;52.486;13.374;2024-03-02T15:35:56;13.90;82.40
3356;DHT22;1691;52.486;13.374;2024-03-02T15:38:25;13.90;82.40
3356;DHT22;1691;52.486;13.374;2024-03-02T15:41:00;13.80;82.40
3356;DHT22;1691;52.486;13.374;2024-03-02T15:43:29;13.80;82.60
3356;DHT22;1691;52.486;13.374;2024-03-02T15:45:57;13.80;82.60
3356;DHT22;1691;52.486;13.374;2024-03-02T15:48:25;13.70;82.80
3356;DHT22;1691;52.486;13.374;2024-03-02T15:50:52;13.70;83.00
3356;DHT22;1691;52.486;13.374;2024-03-02T15:53:19;13.70;83.20
3356;DHT22;1691;52.486;13.374;2024-03-02T15:55:46;13.60;83.20
3356;DHT22;1691;52.486;13.374;2024-03-02T15:58:13;13.60;83.40
3356;DHT22;1691;52.486;13.374;2024-03-02T16:00:40;13.60;83.40
3356;DHT22;1691;52.486;13.374;2024-03-02T16:03:08;13.50;83.40
3356;DHT22;1691;52.486;13.374;2024-03-02T16:05:35;13.50;83.60
3356;DHT22;1691;52.486;13.374;2024-03-02T16:08:02;13.50;83.60
3356;DHT22;1691;52.486;13.374;2024-03-02T16:10:29;13.40;83.60